createdAt,value
2023-04-04T00:01:50.440Z,13.05
2023-04-04T00:04:17.707Z,13.80
2023-04-04T00:06:45.760Z,14.00
2023-04-04T00:09:12.910Z,13.00
2023-04-04T00:11:41.047Z,13.05
2023-04-04T00:14:08.074Z,13.68
2023-04-04T00:16:34.518Z,13.05
2023-04-04T00:19:00.979Z,13.07
2023-04-04T00:21:27.585Z,14.23
2023-04-04T00:23:54.594Z,13.82
2023-04-04T00:26:21.826Z,13.23
2023-04-04T00:28:51.295Z,13.38
2023-04-04T00:31:17.853Z,12.65
2023-04-04T00:33:44.375Z,13.23
2023-04-04T00:36:11.536Z,13.05
2023-04-04T00:38:38.149Z,12.88
2023-04-04T00:41:06.607Z,13.10
2023-04-04T00:43:35.260Z,13.13
2023-04-04T00:46:01.976Z,11.73
2023-04-04T00:48:28.728Z,12.63
2023-04-04T00:50:55.339Z,12.70
2023-04-04T00:53:22.133Z,12.77
2023-04-04T00:55:48.920Z,13.38
2023-04-04T00:58:15.563Z,12.90
2023-04-04T01:00:42.283Z,12.82
2023-04-04T01:03:12.815Z,11.93
2023-04-04T01:05:40.090Z,13.30
2023-04-04T01:08:07.058Z,12.85
2023-04-04T01:10:34.620Z,12.55
2023-04-04T01:13:01.798Z,13.68
2023-04-04T01:15:28.762Z,12.65
2023-04-04T01:17:59.429Z,12.80
2023-04-04T01:20:29.562Z,14.48
2023-04-04T01:25:30.279Z,12.15
2023-04-04T01:27:56.737Z,12.80
2023-04-04T01:30:25.851Z,12.50
2023-04-04T01:33:15.216Z,12.95
2023-04-04T01:35:57.282Z,13.68
2023-04-04T01:38:57.954Z,12.57
2023-04-04T01:41:26.120Z,13.15
2023-04-04T01:43:52.703Z,13.27
2023-04-04T01:46:21.994Z,12.40
2023-04-04T01:48:48.425Z,12.25
2023-04-04T01:51:15.393Z,12.75
2023-04-04T01:53:44.540Z,13.48
2023-04-04T01:56:14.465Z,13.38
2023-04-04T01:58:41.439Z,12.90
2023-04-04T02:01:08.015Z,13.27
2023-04-04T02:03:34.487Z,14.25
2023-04-04T02:06:01.475Z,12.90
2023-04-04T02:08:34.060Z,12.48
2023-04-04T02:11:01.580Z,13.63
2023-04-04T02:13:30.869Z,13.20
2023-04-04T02:15:57.289Z,13.13
2023-04-04T02:18:24.570Z,12.02
2023-04-04T02:20:57.768Z,12.57
2023-04-04T02:23:28.763Z,13.43
2023-04-04T02:25:55.279Z,13.25
2023-04-04T02:28:22.601Z,13.13
2023-04-04T02:30:49.048Z,12.82
2023-04-04T02:33:15.751Z,12.55
2023-04-04T02:35:42.245Z,12.65
2023-04-04T02:38:08.740Z,13.38
2023-04-04T02:40:39.452Z,13.73
2023-04-04T02:43:06.687Z,13.23
2023-04-04T02:45:36.595Z,12.98
2023-04-04T02:48:03.782Z,14.07
2023-04-04T02:50:30.217Z,13.18
2023-04-04T02:53:01.346Z,13.48
2023-04-04T02:55:28.696Z,12.93
2023-04-04T02:57:55.877Z,13.95
2023-04-04T03:00:22.645Z,13.25
2023-04-04T03:02:56.477Z,13.27
2023-04-04T03:05:27.214Z,14.80
2023-04-04T03:07:57.746Z,12.48
2023-04-04T03:10:32.115Z,13.20
2023-04-04T03:12:59.373Z,12.75
2023-04-04T03:15:29.575Z,13.90
2023-04-04T03:20:24.628Z,13.43
2023-04-04T03:22:51.310Z,13.52
2023-04-04T03:25:18.385Z,12.90
2023-04-04T03:27:47.624Z,12.77
2023-04-04T03:30:14.115Z,12.70
2023-04-04T03:32:40.520Z,12.20
2023-04-04T03:35:07.644Z,12.20
2023-04-04T03:37:35.538Z,12.80
2023-04-04T03:40:02.845Z,12.48
2023-04-04T03:42:34.568Z,13.25
2023-04-04T03:45:01.080Z,13.23
2023-04-04T03:47:27.698Z,12.40
2023-04-04T03:49:56.240Z,12.85
2023-04-04T03:52:22.707Z,12.40
2023-04-04T03:54:49.493Z,12.90
2023-04-04T03:57:16.753Z,12.88
2023-04-04T03:59:46.164Z,12.02
2023-04-04T04:02:12.700Z,12.82
2023-04-04T04:04:39.348Z,12.88
2023-04-04T04:07:05.899Z,12.23
2023-04-04T04:09:32.367Z,12.18
2023-04-04T04:11:58.995Z,12.30
2023-04-04T04:14:25.467Z,12.27
2023-04-04T04:16:53.350Z,13.13
2023-04-04T04:19:19.746Z,12.25
2023-04-04T04:21:46.327Z,12.73
2023-04-04T04:24:12.822Z,13.05
2023-04-04T04:26:39.236Z,12.18
2023-04-04T04:29:05.981Z,12.13
2023-04-04T04:31:32.482Z,12.43
2023-04-04T04:33:58.930Z,12.25
2023-04-04T04:36:25.503Z,13.18
2023-04-04T04:38:52.253Z,12.77
2023-04-04T04:41:18.692Z,12.68
2023-04-04T04:43:45.097Z,12.35
2023-04-04T04:46:11.575Z,12.48
2023-04-04T04:48:38.137Z,13.18
2023-04-04T04:51:04.639Z,13.32
2023-04-04T04:53:31.410Z,13.15
2023-04-04T04:55:57.901Z,12.88
2023-04-04T04:58:25.861Z,13.90
2023-04-04T05:00:59.843Z,17.15
2023-04-04T05:03:26.581Z,15.43
2023-04-04T05:05:53.319Z,14.27
2023-04-04T05:08:19.763Z,14.00
2023-04-04T05:10:46.831Z,12.85
2023-04-04T05:13:14.361Z,13.48
2023-04-04T05:15:40.831Z,14.38
2023-04-04T05:18:07.850Z,14.55
2023-04-04T05:20:37.522Z,13.02
2023-04-04T05:23:04.709Z,14.07
2023-04-04T05:25:31.170Z,14.43
2023-04-04T05:28:00.345Z,12.10
2023-04-04T05:30:26.812Z,14.45
2023-04-04T05:32:53.356Z,14.07
2023-04-04T05:35:20.021Z,13.32
2023-04-04T05:37:46.544Z,12.73
2023-04-04T05:40:14.567Z,13.63
2023-04-04T05:42:42.738Z,13.05
2023-04-04T05:45:10.389Z,13.40
2023-04-04T05:47:36.899Z,13.05
2023-04-04T05:50:04.233Z,13.45
2023-04-04T05:52:31.237Z,12.63
2023-04-04T05:54:58.427Z,13.30
2023-04-04T05:57:25.414Z,14.95
2023-04-04T05:59:53.564Z,12.40
2023-04-04T06:02:20.132Z,12.82
2023-04-04T06:04:46.890Z,13.30
2023-04-04T06:07:13.872Z,13.02
2023-04-04T06:09:41.170Z,12.73
2023-04-04T06:12:09.245Z,13.30
2023-04-04T06:14:36.382Z,13.85
2023-04-04T06:17:04.635Z,13.13
2023-04-04T06:19:34.053Z,13.95
2023-04-04T06:22:00.591Z,12.43
2023-04-04T06:24:27.269Z,12.93
2023-04-04T06:26:53.677Z,13.15
2023-04-04T06:29:20.246Z,13.68
2023-04-04T06:31:46.952Z,13.45
2023-04-04T06:34:13.870Z,12.90
2023-04-04T06:36:40.355Z,12.98
2023-04-04T06:39:06.925Z,14.55
2023-04-04T06:41:36.438Z,13.25
2023-04-04T06:44:02.849Z,12.60
2023-04-04T06:46:31.663Z,13.25
2023-04-04T06:48:58.146Z,13.95
2023-04-04T06:51:25.214Z,13.88
2023-04-04T06:53:51.770Z,13.63
2023-04-04T06:56:18.203Z,13.73
2023-04-04T06:58:44.767Z,12.85
2023-04-04T07:01:11.760Z,13.43
2023-04-04T07:03:38.682Z,12.85
2023-04-04T07:06:05.663Z,13.23
2023-04-04T07:08:36.201Z,12.80
2023-04-04T07:11:04.422Z,13.45
2023-04-04T07:13:30.932Z,13.43
2023-04-04T07:15:57.413Z,13.25
2023-04-04T07:18:24.569Z,14.20
2023-04-04T07:20:51.199Z,12.82
2023-04-04T07:23:17.635Z,12.32
2023-04-04T07:25:44.615Z,12.77
2023-04-04T07:28:13.301Z,12.13
2023-04-04T07:30:40.329Z,13.25
2023-04-04T07:33:07.643Z,11.93
2023-04-04T07:35:34.896Z,12.48
2023-04-04T07:38:01.553Z,12.88
2023-04-04T07:40:28.045Z,12.68
2023-04-04T07:42:54.615Z,12.00
2023-04-04T07:45:24.000Z,12.10
2023-04-04T07:47:50.740Z,12.20
2023-04-04T07:50:17.270Z,12.05
2023-04-04T07:52:51.181Z,11.65
2023-04-04T07:55:19.652Z,12.13
2023-04-04T07:57:47.080Z,12.40
2023-04-04T08:00:14.474Z,12.45
2023-04-04T08:02:43.193Z,12.82
2023-04-04T08:05:10.029Z,13.60
2023-04-04T08:07:36.646Z,13.18
2023-04-04T08:10:03.635Z,13.77
2023-04-04T08:12:30.468Z,14.10
2023-04-04T08:14:57.329Z,13.70
2023-04-04T08:17:25.772Z,13.65
2023-04-04T08:19:54.900Z,13.23
2023-04-04T08:22:21.444Z,13.90
2023-04-04T08:24:47.908Z,11.25
2023-04-04T08:27:16.036Z,11.45
2023-04-04T08:29:42.536Z,12.75
2023-04-04T08:32:09.631Z,12.10
2023-04-04T08:34:36.492Z,11.95
2023-04-04T08:37:05.013Z,13.68
2023-04-04T08:39:31.696Z,14.30
2023-04-04T08:42:07.388Z,13.93
2023-04-04T08:44:34.896Z,13.18
2023-04-04T08:47:05.845Z,11.70
2023-04-04T08:49:37.452Z,13.93
2023-04-04T08:52:06.341Z,13.20
2023-04-04T08:54:34.406Z,13.30
2023-04-04T08:57:01.768Z,13.90
2023-04-04T08:59:28.898Z,13.30
2023-04-04T09:02:15.661Z,12.80
2023-04-04T09:04:51.363Z,12.10
2023-04-04T09:07:25.909Z,13.50
2023-04-04T09:09:53.817Z,14.35
2023-04-04T09:12:22.789Z,13.77
2023-04-04T09:14:52.204Z,13.50
2023-04-04T09:17:21.784Z,13.83
2023-04-04T09:19:48.215Z,13.32
2023-04-04T09:22:17.097Z,13.98
2023-04-04T09:24:43.839Z,13.32
2023-04-04T09:27:14.939Z,13.20
2023-04-04T09:29:45.177Z,13.75
2023-04-04T09:34:45.580Z,13.35
2023-04-04T09:37:16.760Z,13.27
2023-04-04T09:39:44.870Z,13.23
2023-04-04T09:42:12.292Z,13.45
2023-04-04T09:44:39.533Z,13.32
2023-04-04T09:50:05.701Z,13.80
2023-04-04T09:52:38.957Z,13.88
2023-04-04T09:55:06.652Z,13.60
2023-04-04T09:57:35.816Z,13.50
2023-04-04T10:00:09.276Z,13.45
2023-04-04T10:02:38.859Z,13.57
2023-04-04T10:05:07.039Z,12.80
2023-04-04T10:07:34.906Z,11.38
2023-04-04T10:10:04.883Z,12.35
2023-04-04T10:12:31.465Z,12.50
2023-04-04T10:15:01.426Z,12.40
2023-04-04T10:17:31.941Z,12.02
2023-04-04T10:20:03.852Z,13.10
2023-04-04T10:22:32.338Z,13.30
2023-04-04T10:24:59.131Z,13.10
2023-04-04T10:27:26.645Z,13.27
2023-04-04T10:29:53.314Z,13.00
2023-04-04T10:32:38.333Z,13.18
2023-04-04T10:35:14.427Z,13.85
2023-04-04T10:37:45.826Z,13.15
2023-04-04T10:40:17.422Z,12.85
2023-04-04T10:42:47.875Z,12.55
2023-04-04T10:45:21.313Z,12.70
2023-04-04T10:47:48.551Z,13.43
2023-04-04T10:50:15.876Z,11.45
2023-04-04T10:52:44.790Z,12.23
2023-04-04T10:55:13.142Z,12.63
2023-04-04T10:57:45.395Z,12.82
2023-04-04T11:00:18.503Z,13.05
2023-04-04T11:02:51.552Z,13.50
2023-04-04T11:05:34.107Z,13.20
2023-04-04T11:08:08.288Z,12.90
2023-04-04T11:10:37.782Z,12.98
2023-04-04T11:13:16.760Z,12.90
2023-04-04T11:16:05.224Z,12.85
2023-04-04T11:21:07.304Z,12.32
2023-04-04T11:23:49.083Z,12.60
2023-04-04T11:26:27.876Z,13.00
2023-04-04T11:29:03.678Z,12.65
2023-04-04T11:31:35.125Z,13.10
2023-04-04T11:34:09.753Z,11.77
2023-04-04T11:36:36.602Z,11.05
2023-04-04T11:39:14.758Z,11.25
2023-04-04T11:41:57.239Z,11.13
2023-04-04T11:44:30.264Z,11.20
2023-04-04T11:47:03.192Z,11.05
2023-04-04T11:49:35.306Z,11.13
2023-04-04T11:52:10.112Z,11.13
2023-04-04T11:54:41.907Z,10.52
2023-04-04T11:57:11.977Z,10.30
2023-04-04T12:02:10.322Z,11.02
2023-04-04T12:04:38.855Z,11.00
2023-04-04T12:07:07.742Z,10.73
2023-04-04T12:09:35.981Z,10.75
2023-04-04T12:12:03.538Z,10.90
2023-04-04T12:14:32.874Z,11.23
2023-04-04T12:17:00.005Z,11.00
2023-04-04T12:19:28.853Z,11.20
2023-04-04T12:21:57.673Z,11.93
2023-04-04T12:24:24.552Z,10.98
2023-04-04T12:26:53.033Z,10.38
2023-04-04T12:29:22.766Z,10.60
2023-04-04T12:31:50.776Z,10.90
2023-04-04T12:34:27.622Z,10.38
2023-04-04T12:36:58.675Z,11.05
2023-04-04T12:39:29.441Z,10.98
2023-04-04T12:42:06.239Z,10.75
2023-04-04T12:44:39.787Z,10.70
2023-04-04T12:47:07.970Z,10.60
2023-04-04T12:49:51.112Z,10.80
2023-04-04T12:52:20.940Z,11.00
2023-04-04T12:54:50.892Z,11.50
2023-04-04T12:57:25.042Z,10.73
2023-04-04T12:59:54.458Z,10.98
2023-04-04T13:02:23.206Z,10.93
2023-04-04T13:04:55.554Z,11.30
2023-04-04T13:07:29.535Z,10.88
2023-04-04T13:09:58.924Z,11.27
2023-04-04T13:12:47.677Z,10.80
2023-04-04T13:15:14.325Z,10.93
2023-04-04T13:17:46.137Z,11.00
2023-04-04T13:20:14.324Z,11.00
2023-04-04T13:22:42.308Z,10.95
2023-04-04T13:25:10.795Z,10.70
2023-04-04T13:27:38.549Z,10.32
2023-04-04T13:30:10.113Z,10.23
2023-04-04T13:32:38.256Z,10.50
2023-04-04T13:35:05.272Z,11.05
2023-04-04T13:37:31.689Z,12.20
2023-04-04T13:39:58.144Z,10.95
2023-04-04T13:42:30.000Z,10.85
2023-04-04T13:44:57.186Z,10.80
2023-04-04T13:47:27.133Z,10.80
2023-04-04T13:49:54.873Z,10.70
2023-04-04T13:52:22.147Z,10.52
2023-04-04T13:54:48.549Z,10.38
2023-04-04T13:57:14.986Z,10.45
2023-04-04T13:59:41.433Z,10.55
2023-04-04T14:02:11.982Z,10.63
2023-04-04T14:04:38.631Z,11.07
2023-04-04T14:07:05.133Z,10.45
2023-04-04T14:09:31.721Z,10.50
2023-04-04T14:11:58.572Z,10.35
2023-04-04T14:14:25.197Z,10.55
2023-04-04T14:16:51.873Z,10.15
2023-04-04T14:19:18.317Z,10.30
2023-04-04T14:21:44.749Z,10.13
2023-04-04T14:24:11.191Z,10.02
2023-04-04T14:26:37.756Z,10.80
2023-04-04T14:29:04.149Z,10.10
2023-04-04T14:31:32.438Z,10.23
2023-04-04T14:33:59.064Z,10.35
2023-04-04T14:36:26.121Z,10.35
2023-04-04T14:38:52.650Z,10.25
2023-04-04T14:41:19.099Z,10.18
2023-04-04T14:43:45.771Z,10.73
2023-04-04T14:46:12.424Z,10.63
2023-04-04T14:48:38.903Z,10.90
2023-04-04T14:51:05.750Z,10.57
2023-04-04T14:53:32.306Z,11.13
2023-04-04T14:55:58.760Z,10.70
2023-04-04T14:58:25.336Z,11.30
2023-04-04T15:00:52.185Z,11.50
2023-04-04T15:03:18.670Z,11.00
2023-04-04T15:05:45.442Z,11.20
2023-04-04T15:08:11.952Z,10.77
2023-04-04T15:10:38.743Z,10.95
2023-04-04T15:13:05.771Z,11.23
2023-04-04T15:15:32.525Z,10.93
2023-04-04T15:17:59.069Z,11.02
2023-04-04T15:20:25.484Z,11.15
2023-04-04T15:22:51.924Z,10.70
2023-04-04T15:25:18.791Z,11.32
2023-04-04T15:27:45.410Z,10.82
2023-04-04T15:30:13.338Z,11.45
2023-04-04T15:32:39.791Z,11.10
2023-04-04T15:35:15.514Z,10.80
2023-04-04T15:37:41.884Z,10.68
2023-04-04T15:40:09.209Z,10.93
2023-04-04T15:42:36.153Z,10.75
2023-04-04T15:45:02.920Z,10.65
2023-04-04T15:47:29.340Z,11.07
2023-04-04T15:49:55.906Z,11.02
2023-04-04T15:52:22.322Z,10.88
2023-04-04T15:54:48.761Z,10.40
2023-04-04T15:57:15.199Z,10.45
2023-04-04T15:59:41.656Z,10.65
2023-04-04T16:02:08.042Z,10.80
2023-04-04T16:04:34.524Z,10.73
2023-04-04T16:07:01.215Z,10.73
2023-04-04T16:09:27.756Z,10.73
2023-04-04T16:11:55.922Z,11.20
2023-04-04T16:14:23.505Z,10.98
2023-04-04T16:16:49.973Z,11.48
2023-04-04T16:19:17.785Z,11.13
2023-04-04T16:21:44.480Z,11.43
2023-04-04T16:24:15.424Z,11.13
2023-04-04T16:26:47.447Z,11.50
2023-04-04T16:29:16.206Z,11.30
2023-04-04T16:31:42.806Z,11.45
2023-04-04T16:34:09.320Z,11.50
2023-04-04T16:36:36.523Z,11.13
2023-04-04T16:39:03.217Z,11.25
2023-04-04T16:41:30.066Z,10.82
2023-04-04T16:43:59.449Z,11.30
2023-04-04T16:46:28.765Z,11.53
2023-04-04T16:48:55.311Z,11.33
2023-04-04T16:51:22.382Z,11.63
2023-04-04T16:53:48.904Z,11.10
2023-04-04T16:56:15.906Z,11.85
2023-04-04T16:58:45.006Z,11.52
2023-04-04T17:01:15.572Z,12.23
2023-04-04T17:03:42.133Z,11.95
2023-04-04T17:06:11.868Z,11.80
2023-04-04T17:08:38.330Z,11.73
2023-04-04T17:11:04.897Z,11.60
2023-04-04T17:13:31.379Z,11.38
2023-04-04T17:15:58.245Z,11.77
2023-04-04T17:18:24.706Z,11.40
2023-04-04T17:20:52.163Z,11.45
2023-04-04T17:23:18.843Z,11.73
2023-04-04T17:25:45.814Z,12.23
2023-04-04T17:28:12.756Z,12.18
2023-04-04T17:30:39.727Z,12.45
2023-04-04T17:33:06.683Z,11.93
2023-04-04T17:35:33.138Z,13.02
2023-04-04T17:37:59.569Z,13.05
2023-04-04T17:40:25.935Z,13.02
2023-04-04T17:42:52.393Z,13.07
2023-04-04T17:45:19.361Z,13.85
2023-04-04T17:47:46.224Z,13.18
2023-04-04T17:50:12.715Z,12.70
2023-04-04T17:52:39.114Z,12.98
2023-04-04T17:55:06.630Z,13.73
2023-04-04T17:57:33.517Z,13.93
2023-04-04T18:00:00.727Z,14.00
2023-04-04T18:02:27.353Z,13.80
2023-04-04T18:04:53.951Z,15.23
2023-04-04T18:07:20.779Z,14.82
2023-04-04T18:09:47.367Z,15.60
2023-04-04T18:12:13.993Z,14.90
2023-04-04T18:14:40.390Z,14.73
2023-04-04T18:17:07.378Z,14.18
2023-04-04T18:19:34.292Z,14.43
2023-04-04T18:22:02.000Z,14.15
2023-04-04T18:24:28.720Z,13.95
2023-04-04T18:26:56.579Z,15.40
2023-04-04T18:29:25.637Z,15.10
2023-04-04T18:31:52.579Z,15.98
2023-04-04T18:34:19.337Z,15.35
2023-04-04T18:36:48.042Z,15.02
2023-04-04T18:39:17.421Z,13.95
2023-04-04T18:41:45.890Z,15.48
2023-04-04T18:44:12.598Z,13.68
2023-04-04T18:46:39.353Z,14.70
2023-04-04T18:49:05.956Z,14.68
2023-04-04T18:51:33.327Z,15.90
2023-04-04T18:53:59.952Z,16.10
2023-04-04T18:56:26.373Z,15.48
2023-04-04T18:58:53.114Z,14.13
2023-04-04T19:01:19.644Z,14.07
2023-04-04T19:03:51.540Z,14.35
2023-04-04T19:06:18.060Z,18.10
2023-04-04T19:08:44.615Z,18.55
2023-04-04T19:11:11.410Z,19.52
2023-04-04T19:13:38.010Z,18.80
2023-04-04T19:16:05.076Z,18.02
2023-04-04T19:18:32.094Z,17.38
2023-04-04T19:20:58.882Z,18.02
2023-04-04T19:23:25.872Z,18.23
2023-04-04T19:25:52.365Z,17.55
2023-04-04T19:28:18.868Z,19.20
2023-04-04T19:30:48.240Z,18.10
2023-04-04T19:33:17.952Z,16.90
2023-04-04T19:35:56.459Z,17.85
2023-04-04T19:38:31.949Z,17.05
2023-04-04T19:41:06.873Z,17.38
2023-04-04T19:43:33.585Z,17.77
2023-04-04T19:46:09.906Z,18.33
2023-04-04T19:48:50.808Z,18.88
2023-04-04T19:51:20.317Z,19.52
2023-04-04T19:53:54.638Z,19.10
2023-04-04T19:56:25.789Z,18.08
2023-04-04T19:59:02.040Z,18.02
2023-04-04T20:01:31.672Z,17.02
2023-04-04T20:04:08.602Z,17.05
2023-04-04T20:06:36.783Z,17.98
2023-04-04T20:09:32.687Z,17.58
2023-04-04T20:12:01.844Z,17.23
2023-04-04T20:14:28.993Z,17.23
2023-04-04T20:16:58.387Z,16.35
2023-04-04T20:19:27.644Z,17.13
2023-04-04T20:21:54.227Z,17.30
2023-04-04T20:24:21.703Z,18.55
2023-04-04T20:26:59.625Z,17.55
2023-04-04T20:29:34.834Z,18.70
2023-04-04T20:32:04.284Z,17.73
2023-04-04T20:34:43.754Z,19.02
2023-04-04T20:37:11.512Z,16.53
2023-04-04T20:39:40.504Z,18.60
2023-04-04T20:42:19.346Z,18.92
2023-04-04T20:44:46.647Z,20.52
2023-04-04T20:47:31.597Z,20.08
2023-04-04T20:49:58.160Z,20.88
2023-04-04T20:52:24.546Z,22.55
2023-04-04T20:54:53.264Z,25.17
2023-04-04T20:57:28.539Z,28.17
2023-04-04T20:59:54.989Z,26.95
2023-04-04T21:02:23.690Z,26.73
2023-04-04T21:04:54.397Z,27.58
2023-04-04T21:07:40.242Z,26.40
2023-04-04T21:10:21.874Z,27.17
2023-04-04T21:12:48.284Z,27.45
2023-04-04T21:15:29.060Z,26.73
2023-04-04T21:17:59.175Z,25.02
2023-04-04T21:23:37.564Z,26.48
2023-04-04T21:26:07.205Z,24.15
2023-04-04T21:28:43.804Z,25.17
2023-04-04T21:31:13.980Z,25.02
2023-04-04T21:33:44.877Z,25.25
2023-04-04T21:36:25.048Z,27.00
2023-04-04T21:38:52.168Z,29.60
2023-04-04T21:41:30.041Z,29.85
2023-04-04T21:44:02.125Z,35.95
2023-04-04T21:46:32.255Z,34.88
2023-04-04T21:51:26.050Z,37.63
2023-04-04T21:53:52.555Z,33.78
2023-04-04T21:56:19.675Z,32.88
2023-04-04T21:58:46.212Z,32.17
2023-04-04T22:01:13.051Z,30.42
2023-04-04T22:03:40.658Z,23.45
2023-04-04T22:06:07.558Z,27.15
2023-04-04T22:08:34.032Z,27.80
2023-04-04T22:11:02.207Z,28.65
2023-04-04T22:13:33.819Z,28.23
2023-04-04T22:16:01.853Z,29.42
2023-04-04T22:18:33.282Z,30.00
2023-04-04T22:21:04.652Z,28.77
2023-04-04T22:23:38.236Z,27.10
2023-04-04T22:26:06.261Z,27.80
2023-04-04T22:28:34.062Z,26.15
2023-04-04T22:31:01.934Z,25.77
2023-04-04T22:33:29.676Z,26.77
2023-04-04T22:35:59.218Z,26.63
2023-04-04T22:38:26.512Z,24.98
2023-04-04T22:40:53.261Z,24.65
2023-04-04T22:43:20.869Z,23.42
2023-04-04T22:45:47.896Z,22.15
2023-04-04T22:48:17.474Z,21.98
2023-04-04T22:50:49.782Z,21.75
2023-04-04T22:53:24.548Z,22.92
2023-04-04T22:55:59.777Z,23.17
2023-04-04T22:58:26.450Z,21.75
2023-04-04T23:00:52.895Z,22.90
2023-04-04T23:03:19.923Z,22.05
2023-04-04T23:05:46.322Z,22.55
2023-04-04T23:08:12.855Z,21.48
2023-04-04T23:10:39.700Z,23.15
2023-04-04T23:13:06.360Z,21.40
2023-04-04T23:15:35.500Z,21.52
2023-04-04T23:18:02.473Z,22.30
2023-04-04T23:20:32.001Z,23.60
2023-04-04T23:22:58.569Z,22.13
2023-04-04T23:25:26.352Z,21.65
2023-04-04T23:27:53.865Z,21.17
2023-04-04T23:30:23.122Z,22.45
2023-04-04T23:32:50.353Z,22.87
2023-04-04T23:35:16.839Z,22.30
2023-04-04T23:37:43.422Z,23.40
2023-04-04T23:40:10.487Z,22.42
2023-04-04T23:42:36.986Z,23.05
2023-04-04T23:45:04.643Z,22.10
2023-04-04T23:47:31.196Z,21.45
2023-04-04T23:49:57.730Z,21.95
2023-04-04T23:52:24.214Z,21.65
2023-04-04T23:54:50.859Z,23.05
2023-04-04T23:57:17.369Z,22.35
2023-04-04T23:59:43.841Z,22.95
